sensor_id;sensor_type;location;lat;lon;timestamp;P1;durP1;ratioP1;P2;durP2;ratioP2
19593;SDS011;9944;48.240;16.478;2023-03-01T00:01:37;15.17;;;9.63;;
19593;SDS011;9944;48.240;16.478;2023-03-01T00:05:44;17.27;;;10.17;;
19593;SDS011;9944;48.240;16.478;2023-03-01T00:09:48;19.37;;;10.07;;
19593;SDS011;9944;48.240;16.478;2023-03-01T00:13:52;18.63;;;10.40;;
19593;SDS011;9944;48.240;16.478;2023-03-01T00:17:56;21.20;;;11.47;;
19593;SDS011;9944;48.240;16.478;2023-03-01T00:22:00;18.70;;;9.53;;
19593;SDS011;9944;48.240;16.478;2023-03-01T00:26:05;18.43;;;10.53;;
19593;SDS011;9944;48.240;16.478;2023-03-01T00:30:11;21.83;;;11.10;;
19593;SDS011;9944;48.240;16.478;2023-03-01T00:34:14;20.70;;;11.53;;
19593;SDS011;9944;48.240;16.478;2023-03-01T00:38:19;18.67;;;10.97;;
19593;SDS011;9944;48.240;16.478;2023-03-01T00:42:23;17.50;;;10.30;;
19593;SDS011;9944;48.240;16.478;2023-03-01T00:46:26;22.17;;;10.60;;
19593;SDS011;9944;48.240;16.478;2023-03-01T00:50:32;21.20;;;11.23;;
19593;SDS011;9944;48.240;16.478;2023-03-01T00:54:37;18.73;;;9.90;;
19593;SDS011;9944;48.240;16.478;2023-03-01T00:58:40;19.17;;;10.27;;
19593;SDS011;9944;48.240;16.478;2023-03-01T01:02:44;18.90;;;10.20;;
19593;SDS011;9944;48.240;16.478;2023-03-01T01:06:47;19.40;;;10.77;;
19593;SDS011;9944;48.240;16.478;2023-03-01T01:10:51;20.53;;;11.33;;
19593;SDS011;9944;48.240;16.478;2023-03-01T01:14:54;26.07;;;11.50;;
19593;SDS011;9944;48.240;16.478;2023-03-01T01:18:57;19.53;;;11.17;;
19593;SDS011;9944;48.240;16.478;2023-03-01T01:23:01;20.00;;;10.57;;
19593;SDS011;9944;48.240;16.478;2023-03-01T01:27:06;19.50;;;10.57;;
19593;SDS011;9944;48.240;16.478;2023-03-01T01:31:09;22.77;;;11.30;;
19593;SDS011;9944;48.240;16.478;2023-03-01T01:35:12;20.57;;;10.97;;
19593;SDS011;9944;48.240;16.478;2023-03-01T01:39:15;20.33;;;10.90;;
19593;SDS011;9944;48.240;16.478;2023-03-01T01:43:22;23.30;;;11.00;;
19593;SDS011;9944;48.240;16.478;2023-03-01T01:47:32;19.97;;;11.23;;
19593;SDS011;9944;48.240;16.478;2023-03-01T01:51:35;22.70;;;10.73;;
19593;SDS011;9944;48.240;16.478;2023-03-01T01:55:42;26.17;;;12.93;;
19593;SDS011;9944;48.240;16.478;2023-03-01T01:59:50;20.97;;;11.33;;
19593;SDS011;9944;48.240;16.478;2023-03-01T02:03:55;23.50;;;12.20;;
19593;SDS011;9944;48.240;16.478;2023-03-01T02:07:58;25.00;;;12.47;;
19593;SDS011;9944;48.240;16.478;2023-03-01T02:12:02;19.27;;;11.00;;
19593;SDS011;9944;48.240;16.478;2023-03-01T02:16:09;23.77;;;10.93;;
19593;SDS011;9944;48.240;16.478;2023-03-01T02:20:15;23.97;;;11.87;;
19593;SDS011;9944;48.240;16.478;2023-03-01T02:24:27;24.63;;;12.93;;
19593;SDS011;9944;48.240;16.478;2023-03-01T02:28:38;28.57;;;13.30;;
19593;SDS011;9944;48.240;16.478;2023-03-01T02:32:42;24.77;;;11.83;;
19593;SDS011;9944;48.240;16.478;2023-03-01T02:36:47;22.03;;;11.97;;
19593;SDS011;9944;48.240;16.478;2023-03-01T02:40:52;22.13;;;11.80;;
19593;SDS011;9944;48.240;16.478;2023-03-01T02:44:58;23.60;;;12.20;;
19593;SDS011;9944;48.240;16.478;2023-03-01T02:49:01;25.00;;;12.97;;
19593;SDS011;9944;48.240;16.478;2023-03-01T02:53:04;26.27;;;12.77;;
19593;SDS011;9944;48.240;16.478;2023-03-01T02:57:15;25.13;;;13.07;;
19593;SDS011;9944;48.240;16.478;2023-03-01T03:01:21;24.80;;;12.20;;
19593;SDS011;9944;48.240;16.478;2023-03-01T03:05:25;24.33;;;12.57;;
19593;SDS011;9944;48.240;16.478;2023-03-01T03:09:31;25.20;;;12.57;;
19593;SDS011;9944;48.240;16.478;2023-03-01T03:13:34;28.30;;;12.83;;
19593;SDS011;9944;48.240;16.478;2023-03-01T03:17:39;25.63;;;12.27;;
19593;SDS011;9944;48.240;16.478;2023-03-01T03:21:46;25.27;;;12.60;;
19593;SDS011;9944;48.240;16.478;2023-03-01T03:25:51;23.13;;;12.40;;
19593;SDS011;9944;48.240;16.478;2023-03-01T03:29:54;25.90;;;12.53;;
19593;SDS011;9944;48.240;16.478;2023-03-01T03:33:59;27.90;;;12.93;;
19593;SDS011;9944;48.240;16.478;2023-03-01T03:38:04;28.17;;;12.80;;
19593;SDS011;9944;48.240;16.478;2023-03-01T03:42:10;21.77;;;12.13;;
19593;SDS011;9944;48.240;16.478;2023-03-01T03:46:13;26.33;;;14.10;;
19593;SDS011;9944;48.240;16.478;2023-03-01T03:50:18;27.23;;;12.97;;
19593;SDS011;9944;48.240;16.478;2023-03-01T03:54:21;25.50;;;13.23;;
19593;SDS011;9944;48.240;16.478;2023-03-01T03:58:25;26.70;;;12.90;;
19593;SDS011;9944;48.240;16.478;2023-03-01T04:02:28;21.97;;;12.30;;
19593;SDS011;9944;48.240;16.478;2023-03-01T04:06:32;25.00;;;13.60;;
19593;SDS011;9944;48.240;16.478;2023-03-01T04:10:36;27.73;;;13.13;;
19593;SDS011;9944;48.240;16.478;2023-03-01T04:14:41;24.70;;;13.03;;
19593;SDS011;9944;48.240;16.478;2023-03-01T04:18:44;27.20;;;13.50;;
19593;SDS011;9944;48.240;16.478;2023-03-01T04:22:48;23.30;;;13.20;;
19593;SDS011;9944;48.240;16.478;2023-03-01T04:26:51;23.13;;;12.37;;
19593;SDS011;9944;48.240;16.478;2023-03-01T04:30:55;25.90;;;12.73;;
19593;SDS011;9944;48.240;16.478;2023-03-01T04:34:59;26.40;;;13.33;;
19593;SDS011;9944;48.240;16.478;2023-03-01T04:39:04;24.37;;;11.87;;
19593;SDS011;9944;48.240;16.478;2023-03-01T04:43:13;27.23;;;13.40;;
19593;SDS011;9944;48.240;16.478;2023-03-01T04:47:16;24.10;;;13.50;;
19593;SDS011;9944;48.240;16.478;2023-03-01T04:51:20;25.50;;;12.53;;
19593;SDS011;9944;48.240;16.478;2023-03-01T04:55:24;24.30;;;13.03;;
19593;SDS011;9944;48.240;16.478;2023-03-01T04:59:28;24.50;;;12.50;;
19593;SDS011;9944;48.240;16.478;2023-03-01T05:03:32;25.10;;;12.53;;
19593;SDS011;9944;48.240;16.478;2023-03-01T05:07:35;23.77;;;12.33;;
19593;SDS011;9944;48.240;16.478;2023-03-01T05:11:39;24.63;;;12.30;;
19593;SDS011;9944;48.240;16.478;2023-03-01T05:15:42;25.80;;;12.43;;
19593;SDS011;9944;48.240;16.478;2023-03-01T05:19:45;27.23;;;12.60;;
19593;SDS011;9944;48.240;16.478;2023-03-01T05:23:48;23.20;;;12.50;;
19593;SDS011;9944;48.240;16.478;2023-03-01T05:27:53;21.77;;;12.87;;
19593;SDS011;9944;48.240;16.478;2023-03-01T05:31:57;23.10;;;11.60;;
19593;SDS011;9944;48.240;16.478;2023-03-01T05:36:02;28.07;;;13.27;;
19593;SDS011;9944;48.240;16.478;2023-03-01T05:40:06;24.50;;;12.40;;
19593;SDS011;9944;48.240;16.478;2023-03-01T05:44:18;22.40;;;11.33;;
19593;SDS011;9944;48.240;16.478;2023-03-01T05:48:21;27.60;;;12.80;;
19593;SDS011;9944;48.240;16.478;2023-03-01T05:52:24;23.67;;;12.50;;
19593;SDS011;9944;48.240;16.478;2023-03-01T05:56:27;26.77;;;12.70;;
19593;SDS011;9944;48.240;16.478;2023-03-01T06:00:33;21.43;;;11.07;;
19593;SDS011;9944;48.240;16.478;2023-03-01T06:04:36;23.07;;;12.23;;
19593;SDS011;9944;48.240;16.478;2023-03-01T06:08:40;24.83;;;11.30;;
19593;SDS011;9944;48.240;16.478;2023-03-01T06:12:43;24.63;;;11.83;;
19593;SDS011;9944;48.240;16.478;2023-03-01T06:16:48;25.57;;;12.40;;
19593;SDS011;9944;48.240;16.478;2023-03-01T06:20:54;24.30;;;11.87;;
19593;SDS011;9944;48.240;16.478;2023-03-01T06:24:58;24.60;;;12.97;;
19593;SDS011;9944;48.240;16.478;2023-03-01T06:29:01;24.03;;;12.13;;
19593;SDS011;9944;48.240;16.478;2023-03-01T06:33:06;24.27;;;13.03;;
19593;SDS011;9944;48.240;16.478;2023-03-01T06:37:09;23.87;;;12.57;;
19593;SDS011;9944;48.240;16.478;2023-03-01T06:41:12;22.70;;;12.13;;
19593;SDS011;9944;48.240;16.478;2023-03-01T06:45:15;24.77;;;12.57;;
19593;SDS011;9944;48.240;16.478;2023-03-01T06:49:21;22.73;;;11.67;;
19593;SDS011;9944;48.240;16.478;2023-03-01T06:53:24;21.43;;;11.93;;
19593;SDS011;9944;48.240;16.478;2023-03-01T06:57:27;22.70;;;12.63;;
19593;SDS011;9944;48.240;16.478;2023-03-01T07:01:31;21.63;;;10.67;;
19593;SDS011;9944;48.240;16.478;2023-03-01T07:05:35;28.37;;;12.97;;
19593;SDS011;9944;48.240;16.478;2023-03-01T07:09:39;23.70;;;10.80;;
19593;SDS011;9944;48.240;16.478;2023-03-01T07:13:42;24.77;;;11.53;;
19593;SDS011;9944;48.240;16.478;2023-03-01T07:17:45;27.43;;;12.60;;
19593;SDS011;9944;48.240;16.478;2023-03-01T07:21:50;24.00;;;12.50;;
19593;SDS011;9944;48.240;16.478;2023-03-01T07:25:54;28.23;;;13.63;;
19593;SDS011;9944;48.240;16.478;2023-03-01T07:29:57;23.73;;;11.97;;
19593;SDS011;9944;48.240;16.478;2023-03-01T07:34:00;23.10;;;12.23;;
19593;SDS011;9944;48.240;16.478;2023-03-01T07:38:05;23.37;;;11.53;;
19593;SDS011;9944;48.240;16.478;2023-03-01T07:42:08;24.93;;;11.93;;
19593;SDS011;9944;48.240;16.478;2023-03-01T07:46:11;22.73;;;12.27;;
19593;SDS011;9944;48.240;16.478;2023-03-01T07:50:14;25.87;;;12.97;;
19593;SDS011;9944;48.240;16.478;2023-03-01T07:54:19;26.73;;;12.70;;
19593;SDS011;9944;48.240;16.478;2023-03-01T07:58:22;22.73;;;11.90;;
19593;SDS011;9944;48.240;16.478;2023-03-01T08:02:26;22.45;;;12.80;;
19593;SDS011;9944;48.240;16.478;2023-03-01T08:06:29;23.83;;;12.03;;
19593;SDS011;9944;48.240;16.478;2023-03-01T08:10:34;26.97;;;12.83;;
19593;SDS011;9944;48.240;16.478;2023-03-01T08:14:38;23.52;;;11.02;;
19593;SDS011;9944;48.240;16.478;2023-03-01T08:18:42;21.65;;;11.95;;
19593;SDS011;9944;48.240;16.478;2023-03-01T08:22:45;21.65;;;11.43;;
19593;SDS011;9944;48.240;16.478;2023-03-01T08:26:50;24.10;;;12.73;;
19593;SDS011;9944;48.240;16.478;2023-03-01T08:30:53;25.95;;;12.07;;
19593;SDS011;9944;48.240;16.478;2023-03-01T08:34:56;25.95;;;12.90;;
19593;SDS011;9944;48.240;16.478;2023-03-01T08:38:59;19.90;;;11.27;;
19593;SDS011;9944;48.240;16.478;2023-03-01T08:43:04;22.35;;;12.82;;
19593;SDS011;9944;48.240;16.478;2023-03-01T08:47:07;26.75;;;12.60;;
19593;SDS011;9944;48.240;16.478;2023-03-01T08:51:11;22.40;;;11.45;;
19593;SDS011;9944;48.240;16.478;2023-03-01T08:55:16;23.73;;;12.00;;
19593;SDS011;9944;48.240;16.478;2023-03-01T08:59:20;25.23;;;12.50;;
19593;SDS011;9944;48.240;16.478;2023-03-01T09:03:24;19.42;;;11.20;;
19593;SDS011;9944;48.240;16.478;2023-03-01T09:07:27;21.80;;;11.82;;
19593;SDS011;9944;48.240;16.478;2023-03-01T09:11:30;23.77;;;11.55;;
19593;SDS011;9944;48.240;16.478;2023-03-01T09:15:37;22.98;;;12.15;;
19593;SDS011;9944;48.240;16.478;2023-03-01T09:19:40;19.35;;;10.20;;
19593;SDS011;9944;48.240;16.478;2023-03-01T09:23:44;24.48;;;11.90;;
19593;SDS011;9944;48.240;16.478;2023-03-01T09:27:50;24.65;;;12.10;;
19593;SDS011;9944;48.240;16.478;2023-03-01T09:31:55;24.95;;;11.95;;
19593;SDS011;9944;48.240;16.478;2023-03-01T09:35:58;26.83;;;12.18;;
19593;SDS011;9944;48.240;16.478;2023-03-01T09:40:01;22.80;;;12.13;;
19593;SDS011;9944;48.240;16.478;2023-03-01T09:44:09;22.83;;;12.57;;
19593;SDS011;9944;48.240;16.478;2023-03-01T09:48:21;20.67;;;11.85;;
19593;SDS011;9944;48.240;16.478;2023-03-01T09:52:28;21.80;;;11.68;;
19593;SDS011;9944;48.240;16.478;2023-03-01T09:56:36;22.48;;;11.85;;
19593;SDS011;9944;48.240;16.478;2023-03-01T10:00:42;19.73;;;11.02;;
19593;SDS011;9944;48.240;16.478;2023-03-01T10:04:49;20.95;;;10.90;;
19593;SDS011;9944;48.240;16.478;2023-03-01T10:08:54;20.85;;;11.85;;
19593;SDS011;9944;48.240;16.478;2023-03-01T10:13:01;20.05;;;11.07;;
19593;SDS011;9944;48.240;16.478;2023-03-01T10:17:12;23.20;;;11.05;;
19593;SDS011;9944;48.240;16.478;2023-03-01T10:21:23;20.50;;;11.65;;
19593;SDS011;9944;48.240;16.478;2023-03-01T10:25:36;18.75;;;10.35;;
19593;SDS011;9944;48.240;16.478;2023-03-01T10:29:48;21.85;;;11.20;;
19593;SDS011;9944;48.240;16.478;2023-03-01T10:34:00;20.98;;;10.95;;
19593;SDS011;9944;48.240;16.478;2023-03-01T10:38:06;18.08;;;9.90;;
19593;SDS011;9944;48.240;16.478;2023-03-01T10:42:19;18.38;;;9.88;;
19593;SDS011;9944;48.240;16.478;2023-03-01T10:46:33;21.33;;;10.32;;
19593;SDS011;9944;48.240;16.478;2023-03-01T10:50:39;15.07;;;9.20;;
19593;SDS011;9944;48.240;16.478;2023-03-01T10:54:44;17.20;;;9.32;;
19593;SDS011;9944;48.240;16.478;2023-03-01T10:58:58;17.38;;;10.23;;
19593;SDS011;9944;48.240;16.478;2023-03-01T11:03:09;18.48;;;10.23;;
19593;SDS011;9944;48.240;16.478;2023-03-01T11:07:14;21.42;;;10.18;;
19593;SDS011;9944;48.240;16.478;2023-03-01T11:11:21;19.90;;;9.75;;
19593;SDS011;9944;48.240;16.478;2023-03-01T11:15:28;17.85;;;9.63;;
19593;SDS011;9944;48.240;16.478;2023-03-01T11:19:32;13.10;;;8.35;;
19593;SDS011;9944;48.240;16.478;2023-03-01T11:23:35;13.95;;;8.30;;
19593;SDS011;9944;48.240;16.478;2023-03-01T11:27:44;13.20;;;7.90;;
19593;SDS011;9944;48.240;16.478;2023-03-01T11:31:48;15.65;;;8.45;;
19593;SDS011;9944;48.240;16.478;2023-03-01T11:36:00;14.75;;;8.60;;
19593;SDS011;9944;48.240;16.478;2023-03-01T11:40:10;15.80;;;8.02;;
19593;SDS011;9944;48.240;16.478;2023-03-01T11:44:18;13.70;;;7.72;;
19593;SDS011;9944;48.240;16.478;2023-03-01T11:48:34;11.45;;;6.82;;
19593;SDS011;9944;48.240;16.478;2023-03-01T11:52:54;13.52;;;8.07;;
19593;SDS011;9944;48.240;16.478;2023-03-01T11:57:07;13.55;;;7.88;;
19593;SDS011;9944;48.240;16.478;2023-03-01T12:01:25;14.52;;;7.90;;
19593;SDS011;9944;48.240;16.478;2023-03-01T12:05:46;11.88;;;7.25;;
19593;SDS011;9944;48.240;16.478;2023-03-01T12:10:15;14.18;;;7.78;;
19593;SDS011;9944;48.240;16.478;2023-03-01T12:14:29;14.27;;;8.07;;
19593;SDS011;9944;48.240;16.478;2023-03-01T12:19:01;12.85;;;7.78;;
19593;SDS011;9944;48.240;16.478;2023-03-01T12:23:20;15.07;;;8.25;;
19593;SDS011;9944;48.240;16.478;2023-03-01T12:27:53;13.65;;;7.63;;
19593;SDS011;9944;48.240;16.478;2023-03-01T12:32:25;13.05;;;7.68;;
19593;SDS011;9944;48.240;16.478;2023-03-01T12:36:47;14.52;;;7.70;;
19593;SDS011;9944;48.240;16.478;2023-03-01T12:41:11;14.77;;;8.15;;
19593;SDS011;9944;48.240;16.478;2023-03-01T12:45:30;15.73;;;8.43;;
19593;SDS011;9944;48.240;16.478;2023-03-01T12:49:44;13.50;;;8.80;;
19593;SDS011;9944;48.240;16.478;2023-03-01T12:53:53;16.40;;;8.55;;
19593;SDS011;9944;48.240;16.478;2023-03-01T12:58:00;14.40;;;9.00;;
19593;SDS011;9944;48.240;16.478;2023-03-01T13:02:13;16.13;;;8.85;;
19593;SDS011;9944;48.240;16.478;2023-03-01T13:06:25;15.13;;;8.82;;
19593;SDS011;9944;48.240;16.478;2023-03-01T13:10:47;15.98;;;9.00;;
19593;SDS011;9944;48.240;16.478;2023-03-01T13:14:53;15.10;;;8.55;;
19593;SDS011;9944;48.240;16.478;2023-03-01T13:19:06;15.63;;;8.57;;
19593;SDS011;9944;48.240;16.478;2023-03-01T13:23:25;18.25;;;9.35;;
19593;SDS011;9944;48.240;16.478;2023-03-01T13:27:31;17.15;;;9.48;;
19593;SDS011;9944;48.240;16.478;2023-03-01T13:36:02;16.30;;;9.23;;
19593;SDS011;9944;48.240;16.478;2023-03-01T13:44:50;14.90;;;8.52;;
19593;SDS011;9944;48.240;16.478;2023-03-01T13:48:54;12.60;;;8.90;;
19593;SDS011;9944;48.240;16.478;2023-03-01T13:52:59;16.85;;;9.82;;
19593;SDS011;9944;48.240;16.478;2023-03-01T13:57:05;16.13;;;8.85;;
19593;SDS011;9944;48.240;16.478;2023-03-01T14:01:24;15.70;;;9.02;;
19593;SDS011;9944;48.240;16.478;2023-03-01T14:05:30;18.15;;;10.18;;
19593;SDS011;9944;48.240;16.478;2023-03-01T14:09:34;17.38;;;9.50;;
19593;SDS011;9944;48.240;16.478;2023-03-01T14:13:48;17.30;;;9.57;;
19593;SDS011;9944;48.240;16.478;2023-03-01T14:18:03;29.52;;;9.32;;
19593;SDS011;9944;48.240;16.478;2023-03-01T14:22:17;16.73;;;9.57;;
19593;SDS011;9944;48.240;16.478;2023-03-01T14:26:24;18.15;;;9.45;;
19593;SDS011;9944;48.240;16.478;2023-03-01T14:30:30;17.70;;;9.35;;
19593;SDS011;9944;48.240;16.478;2023-03-01T14:34:36;16.05;;;9.13;;
19593;SDS011;9944;48.240;16.478;2023-03-01T14:38:46;18.20;;;9.52;;
19593;SDS011;9944;48.240;16.478;2023-03-01T14:42:50;14.98;;;8.70;;
19593;SDS011;9944;48.240;16.478;2023-03-01T14:46:54;14.98;;;9.23;;
19593;SDS011;9944;48.240;16.478;2023-03-01T14:51:00;19.35;;;9.27;;
19593;SDS011;9944;48.240;16.478;2023-03-01T14:55:05;19.30;;;9.00;;
19593;SDS011;9944;48.240;16.478;2023-03-01T14:59:09;18.33;;;9.35;;
19593;SDS011;9944;48.240;16.478;2023-03-01T15:03:14;13.68;;;8.85;;
19593;SDS011;9944;48.240;16.478;2023-03-01T15:07:27;14.57;;;8.07;;
19593;SDS011;9944;48.240;16.478;2023-03-01T15:11:34;19.75;;;8.75;;
19593;SDS011;9944;48.240;16.478;2023-03-01T15:15:38;15.70;;;8.25;;
19593;SDS011;9944;48.240;16.478;2023-03-01T15:19:45;15.60;;;8.40;;
19593;SDS011;9944;48.240;16.478;2023-03-01T15:23:50;17.17;;;9.18;;
19593;SDS011;9944;48.240;16.478;2023-03-01T15:27:57;14.32;;;8.18;;
19593;SDS011;9944;48.240;16.478;2023-03-01T15:32:03;16.85;;;8.63;;
19593;SDS011;9944;48.240;16.478;2023-03-01T15:40:35;13.63;;;8.05;;
19593;SDS011;9944;48.240;16.478;2023-03-01T15:45:06;16.60;;;8.02;;
19593;SDS011;9944;48.240;16.478;2023-03-01T15:49:19;14.45;;;8.02;;
19593;SDS011;9944;48.240;16.478;2023-03-01T15:53:30;14.63;;;8.45;;
19593;SDS011;9944;48.240;16.478;2023-03-01T15:57:34;17.60;;;8.48;;
19593;SDS011;9944;48.240;16.478;2023-03-01T16:01:37;16.13;;;7.28;;
19593;SDS011;9944;48.240;16.478;2023-03-01T16:05:40;13.75;;;6.90;;
19593;SDS011;9944;48.240;16.478;2023-03-01T16:09:44;16.00;;;7.80;;
19593;SDS011;9944;48.240;16.478;2023-03-01T16:13:48;13.75;;;7.70;;
19593;SDS011;9944;48.240;16.478;2023-03-01T16:17:52;14.70;;;7.78;;
19593;SDS011;9944;48.240;16.478;2023-03-01T16:21:55;16.13;;;8.35;;
19593;SDS011;9944;48.240;16.478;2023-03-01T16:25:58;14.60;;;8.43;;
19593;SDS011;9944;48.240;16.478;2023-03-01T16:30:03;14.50;;;7.47;;
19593;SDS011;9944;48.240;16.478;2023-03-01T16:34:07;15.30;;;8.00;;
19593;SDS011;9944;48.240;16.478;2023-03-01T16:38:11;20.10;;;8.55;;
19593;SDS011;9944;48.240;16.478;2023-03-01T16:42:14;12.45;;;7.70;;
19593;SDS011;9944;48.240;16.478;2023-03-01T16:46:20;13.57;;;7.70;;
19593;SDS011;9944;48.240;16.478;2023-03-01T16:50:24;14.65;;;8.05;;
19593;SDS011;9944;48.240;16.478;2023-03-01T16:54:27;13.98;;;7.78;;
19593;SDS011;9944;48.240;16.478;2023-03-01T16:58:30;16.15;;;8.20;;
19593;SDS011;9944;48.240;16.478;2023-03-01T17:02:35;13.70;;;8.05;;
19593;SDS011;9944;48.240;16.478;2023-03-01T17:06:38;19.10;;;8.38;;
19593;SDS011;9944;48.240;16.478;2023-03-01T17:10:42;12.77;;;7.95;;
19593;SDS011;9944;48.240;16.478;2023-03-01T17:14:45;18.77;;;9.13;;
19593;SDS011;9944;48.240;16.478;2023-03-01T17:18:52;18.08;;;9.57;;
19593;SDS011;9944;48.240;16.478;2023-03-01T17:22:55;15.90;;;9.23;;
19593;SDS011;9944;48.240;16.478;2023-03-01T17:26:59;19.48;;;10.23;;
19593;SDS011;9944;48.240;16.478;2023-03-01T17:31:03;20.55;;;10.00;;
19593;SDS011;9944;48.240;16.478;2023-03-01T17:35:08;17.40;;;9.23;;
19593;SDS011;9944;48.240;16.478;2023-03-01T17:39:12;16.33;;;9.52;;
19593;SDS011;9944;48.240;16.478;2023-03-01T17:43:16;16.77;;;9.45;;
19593;SDS011;9944;48.240;16.478;2023-03-01T17:47:20;19.80;;;10.13;;
19593;SDS011;9944;48.240;16.478;2023-03-01T17:51:24;17.75;;;9.68;;
19593;SDS011;9944;48.240;16.478;2023-03-01T17:55:28;17.02;;;9.68;;
19593;SDS011;9944;48.240;16.478;2023-03-01T17:59:31;18.95;;;10.40;;
19593;SDS011;9944;48.240;16.478;2023-03-01T18:03:34;18.50;;;9.68;;
19593;SDS011;9944;48.240;16.478;2023-03-01T18:07:39;18.33;;;9.95;;
19593;SDS011;9944;48.240;16.478;2023-03-01T18:11:42;18.35;;;10.02;;
19593;SDS011;9944;48.240;16.478;2023-03-01T18:15:48;20.40;;;9.93;;
19593;SDS011;9944;48.240;16.478;2023-03-01T18:19:51;19.10;;;9.88;;
19593;SDS011;9944;48.240;16.478;2023-03-01T18:23:57;18.95;;;10.15;;
19593;SDS011;9944;48.240;16.478;2023-03-01T18:28:01;18.35;;;9.85;;
19593;SDS011;9944;48.240;16.478;2023-03-01T18:32:05;21.80;;;11.30;;
19593;SDS011;9944;48.240;16.478;2023-03-01T18:36:15;19.30;;;10.32;;
19593;SDS011;9944;48.240;16.478;2023-03-01T18:40:22;23.77;;;12.55;;
19593;SDS011;9944;48.240;16.478;2023-03-01T18:44:25;20.40;;;11.27;;
19593;SDS011;9944;48.240;16.478;2023-03-01T18:48:28;21.02;;;10.98;;
19593;SDS011;9944;48.240;16.478;2023-03-01T18:52:31;20.85;;;10.82;;
19593;SDS011;9944;48.240;16.478;2023-03-01T18:56:35;18.25;;;10.10;;
19593;SDS011;9944;48.240;16.478;2023-03-01T19:00:38;19.92;;;10.80;;
19593;SDS011;9944;48.240;16.478;2023-03-01T19:04:42;20.40;;;11.50;;
19593;SDS011;9944;48.240;16.478;2023-03-01T19:08:45;21.15;;;11.57;;
19593;SDS011;9944;48.240;16.478;2023-03-01T19:12:50;19.08;;;11.60;;
19593;SDS011;9944;48.240;16.478;2023-03-01T19:16:53;20.90;;;11.38;;
19593;SDS011;9944;48.240;16.478;2023-03-01T19:20:56;19.73;;;11.60;;
19593;SDS011;9944;48.240;16.478;2023-03-01T19:25:05;23.08;;;10.90;;
19593;SDS011;9944;48.240;16.478;2023-03-01T19:29:10;21.80;;;11.80;;
19593;SDS011;9944;48.240;16.478;2023-03-01T19:33:13;21.77;;;11.35;;
19593;SDS011;9944;48.240;16.478;2023-03-01T19:37:16;22.67;;;11.82;;
19593;SDS011;9944;48.240;16.478;2023-03-01T19:41:19;20.63;;;12.32;;
19593;SDS011;9944;48.240;16.478;2023-03-01T19:45:24;21.23;;;12.18;;
19593;SDS011;9944;48.240;16.478;2023-03-01T19:49:34;25.77;;;11.98;;
19593;SDS011;9944;48.240;16.478;2023-03-01T19:53:38;22.63;;;11.80;;
19593;SDS011;9944;48.240;16.478;2023-03-01T19:57:42;19.15;;;11.30;;
19593;SDS011;9944;48.240;16.478;2023-03-01T20:01:47;23.77;;;11.73;;
19593;SDS011;9944;48.240;16.478;2023-03-01T20:05:50;22.23;;;12.18;;
19593;SDS011;9944;48.240;16.478;2023-03-01T20:09:53;21.67;;;11.73;;
19593;SDS011;9944;48.240;16.478;2023-03-01T20:13:56;20.52;;;11.07;;
19593;SDS011;9944;48.240;16.478;2023-03-01T20:18:00;23.67;;;11.27;;
19593;SDS011;9944;48.240;16.478;2023-03-01T20:22:04;22.63;;;12.40;;
19593;SDS011;9944;48.240;16.478;2023-03-01T20:26:07;22.80;;;12.25;;
19593;SDS011;9944;48.240;16.478;2023-03-01T20:30:15;22.92;;;11.52;;
19593;SDS011;9944;48.240;16.478;2023-03-01T20:34:20;20.65;;;11.23;;
19593;SDS011;9944;48.240;16.478;2023-03-01T20:38:23;25.08;;;12.23;;
19593;SDS011;9944;48.240;16.478;2023-03-01T20:42:27;21.70;;;11.50;;
19593;SDS011;9944;48.240;16.478;2023-03-01T20:46:30;24.00;;;12.02;;
19593;SDS011;9944;48.240;16.478;2023-03-01T20:50:40;22.35;;;11.13;;
19593;SDS011;9944;48.240;16.478;2023-03-01T20:54:43;23.05;;;11.85;;
19593;SDS011;9944;48.240;16.478;2023-03-01T20:58:46;23.80;;;11.73;;
19593;SDS011;9944;48.240;16.478;2023-03-01T21:02:50;22.50;;;11.85;;
19593;SDS011;9944;48.240;16.478;2023-03-01T21:06:54;23.23;;;11.93;;
19593;SDS011;9944;48.240;16.478;2023-03-01T21:10:57;21.52;;;11.73;;
19593;SDS011;9944;48.240;16.478;2023-03-01T21:15:01;19.38;;;11.07;;
19593;SDS011;9944;48.240;16.478;2023-03-01T21:19:04;21.35;;;11.50;;
19593;SDS011;9944;48.240;16.478;2023-03-01T21:23:09;22.48;;;11.73;;
19593;SDS011;9944;48.240;16.478;2023-03-01T21:27:12;22.40;;;12.35;;
19593;SDS011;9944;48.240;16.478;2023-03-01T21:31:15;20.08;;;11.23;;
19593;SDS011;9944;48.240;16.478;2023-03-01T21:35:20;22.48;;;12.73;;
19593;SDS011;9944;48.240;16.478;2023-03-01T21:39:24;22.85;;;11.90;;
19593;SDS011;9944;48.240;16.478;2023-03-01T21:43:29;27.40;;;13.13;;
19593;SDS011;9944;48.240;16.478;2023-03-01T21:47:32;22.50;;;12.93;;
19593;SDS011;9944;48.240;16.478;2023-03-01T21:51:36;30.73;;;13.93;;
19593;SDS011;9944;48.240;16.478;2023-03-01T21:55:46;29.75;;;14.27;;
19593;SDS011;9944;48.240;16.478;2023-03-01T21:59:49;31.33;;;15.38;;
19593;SDS011;9944;48.240;16.478;2023-03-01T22:03:53;23.33;;;13.85;;
19593;SDS011;9944;48.240;16.478;2023-03-01T22:07:56;29.85;;;15.18;;
19593;SDS011;9944;48.240;16.478;2023-03-01T22:12:01;30.92;;;15.45;;
19593;SDS011;9944;48.240;16.478;2023-03-01T22:16:04;30.33;;;15.82;;
19593;SDS011;9944;48.240;16.478;2023-03-01T22:20:08;35.35;;;15.85;;
19593;SDS011;9944;48.240;16.478;2023-03-01T22:24:12;31.50;;;15.85;;
19593;SDS011;9944;48.240;16.478;2023-03-01T22:28:16;30.80;;;15.75;;
19593;SDS011;9944;48.240;16.478;2023-03-01T22:32:20;33.60;;;17.00;;
19593;SDS011;9944;48.240;16.478;2023-03-01T22:36:24;35.40;;;16.92;;
19593;SDS011;9944;48.240;16.478;2023-03-01T22:40:27;35.97;;;16.45;;
19593;SDS011;9944;48.240;16.478;2023-03-01T22:44:31;34.90;;;16.73;;
19593;SDS011;9944;48.240;16.478;2023-03-01T22:48:34;32.88;;;17.67;;
19593;SDS011;9944;48.240;16.478;2023-03-01T22:52:37;35.35;;;18.10;;
19593;SDS011;9944;48.240;16.478;2023-03-01T22:56:41;33.58;;;16.85;;
19593;SDS011;9944;48.240;16.478;2023-03-01T23:00:45;38.03;;;18.20;;
19593;SDS011;9944;48.240;16.478;2023-03-01T23:04:49;33.80;;;16.77;;
19593;SDS011;9944;48.240;16.478;2023-03-01T23:08:55;35.00;;;17.73;;
19593;SDS011;9944;48.240;16.478;2023-03-01T23:12:59;40.63;;;18.63;;
19593;SDS011;9944;48.240;16.478;2023-03-01T23:17:03;33.67;;;17.60;;
19593;SDS011;9944;48.240;16.478;2023-03-01T23:21:09;38.33;;;18.88;;
19593;SDS011;9944;48.240;16.478;2023-03-01T23:25:13;34.95;;;18.42;;
19593;SDS011;9944;48.240;16.478;2023-03-01T23:29:16;37.65;;;19.20;;
19593;SDS011;9944;48.240;16.478;2023-03-01T23:33:20;37.47;;;17.98;;
19593;SDS011;9944;48.240;16.478;2023-03-01T23:37:28;36.75;;;18.25;;
19593;SDS011;9944;48.240;16.478;2023-03-01T23:41:32;41.30;;;19.35;;
19593;SDS011;9944;48.240;16.478;2023-03-01T23:45:36;41.88;;;19.85;;
19593;SDS011;9944;48.240;16.478;2023-03-01T23:49:44;40.05;;;19.75;;
19593;SDS011;9944;48.240;16.478;2023-03-01T23:53:48;35.10;;;18.58;;
19593;SDS011;9944;48.240;16.478;2023-03-01T23:57:55;35.53;;;18.42;;
